createdAt,value
2023-06-20T00:00:42.655Z,37.46
2023-06-20T00:01:42.664Z,37.47
2023-06-20T00:02:42.789Z,37.46
2023-06-20T00:03:42.796Z,37.47
2023-06-20T00:04:42.766Z,37.53
2023-06-20T00:05:42.751Z,37.55
2023-06-20T00:06:42.769Z,37.50
2023-06-20T00:07:42.790Z,37.58
2023-06-20T00:08:42.826Z,37.58
2023-06-20T00:09:42.837Z,37.59
2023-06-20T00:10:42.860Z,37.61
2023-06-20T00:11:42.893Z,37.63
2023-06-20T00:12:42.900Z,37.61
2023-06-20T00:13:42.926Z,37.59
2023-06-20T00:14:42.968Z,37.64
2023-06-20T00:15:42.955Z,37.62
2023-06-20T00:16:42.976Z,37.68
2023-06-20T00:17:43.047Z,37.67
2023-06-20T00:18:43.010Z,37.68
2023-06-20T00:19:43.032Z,37.64
2023-06-20T00:20:43.065Z,37.73
2023-06-20T00:21:43.072Z,37.72
2023-06-20T00:22:43.102Z,37.70
2023-06-20T00:23:43.086Z,37.72
2023-06-20T00:24:43.116Z,37.76
2023-06-20T00:25:43.044Z,37.79
2023-06-20T00:26:43.049Z,37.75
2023-06-20T00:27:43.028Z,37.81
2023-06-20T00:28:43.037Z,37.81
2023-06-20T00:29:43.016Z,37.78
2023-06-20T00:30:42.996Z,37.85
2023-06-20T00:31:42.965Z,37.82
2023-06-20T00:32:42.993Z,37.80
2023-06-20T00:33:42.966Z,37.78
2023-06-20T00:34:42.930Z,37.71
2023-06-20T00:35:42.902Z,37.64
2023-06-20T00:36:42.889Z,37.67
2023-06-20T00:37:42.871Z,37.66
2023-06-20T00:38:42.863Z,37.60
2023-06-20T00:39:42.840Z,37.56
2023-06-20T00:40:42.851Z,37.54
2023-06-20T00:41:42.868Z,37.52
2023-06-20T00:42:42.883Z,37.45
2023-06-20T00:43:42.887Z,37.37
2023-06-20T00:44:42.912Z,37.38
2023-06-20T00:45:42.945Z,37.36
2023-06-20T00:46:42.916Z,37.32
2023-06-20T00:47:42.991Z,37.29
2023-06-20T00:48:42.912Z,37.27
2023-06-20T00:49:42.930Z,37.20
2023-06-20T00:50:42.930Z,37.21
2023-06-20T00:51:42.951Z,37.18
2023-06-20T00:52:42.958Z,37.23
2023-06-20T00:53:42.951Z,37.17
2023-06-20T00:54:42.959Z,37.17
2023-06-20T00:55:42.967Z,37.09
2023-06-20T00:56:42.957Z,37.16
2023-06-20T00:57:42.959Z,37.14
2023-06-20T00:58:42.968Z,37.12
2023-06-20T00:59:42.974Z,36.97
2023-06-20T01:00:42.989Z,37.01
2023-06-20T01:01:43.056Z,36.97
2023-06-20T01:02:43.066Z,36.93
2023-06-20T01:03:43.071Z,36.92
2023-06-20T01:04:42.998Z,36.88
2023-06-20T01:05:43.001Z,36.92
2023-06-20T01:06:43.019Z,36.93
2023-06-20T01:07:43.026Z,36.83
2023-06-20T01:08:43.016Z,36.83
2023-06-20T01:09:43.016Z,36.84
2023-06-20T01:10:43.020Z,36.85
2023-06-20T01:11:43.009Z,36.81
2023-06-20T01:12:43.012Z,36.77
2023-06-20T01:13:43.008Z,36.83
2023-06-20T01:14:43.024Z,36.76
2023-06-20T01:15:43.044Z,36.74
2023-06-20T01:16:43.018Z,36.73
2023-06-20T01:17:43.093Z,36.74
2023-06-20T01:18:43.020Z,36.71
2023-06-20T01:19:43.038Z,36.71
2023-06-20T01:20:43.038Z,36.67
2023-06-20T01:21:43.037Z,36.67
2023-06-20T01:22:43.045Z,36.71
2023-06-20T01:23:43.068Z,36.64
2023-06-20T01:24:43.128Z,36.65
2023-06-20T01:25:43.076Z,36.63
2023-06-20T01:26:43.069Z,36.61
2023-06-20T01:27:43.067Z,36.64
2023-06-20T01:28:43.082Z,36.62
2023-06-20T01:29:43.083Z,36.63
2023-06-20T01:30:43.095Z,36.60
2023-06-20T01:31:43.088Z,36.60
2023-06-20T01:32:43.136Z,36.64
2023-06-20T01:33:43.103Z,36.57
2023-06-20T01:34:43.128Z,36.57
2023-06-20T01:35:43.118Z,36.57
2023-06-20T01:36:43.126Z,36.53
2023-06-20T01:37:43.122Z,36.56
2023-06-20T01:38:43.136Z,36.62
2023-06-20T01:39:43.118Z,36.61
2023-06-20T01:40:43.098Z,36.53
2023-06-20T01:41:43.068Z,36.58
2023-06-20T01:42:43.064Z,36.56
2023-06-20T01:43:43.035Z,36.58
2023-06-20T01:44:43.035Z,36.53
2023-06-20T01:45:42.996Z,36.52
2023-06-20T01:46:43.074Z,36.52
2023-06-20T01:47:43.029Z,36.52
2023-06-20T01:48:42.935Z,36.46
2023-06-20T01:49:42.907Z,36.51
2023-06-20T01:50:42.919Z,36.51
2023-06-20T01:51:42.867Z,36.54
2023-06-20T01:52:42.845Z,36.50
2023-06-20T01:53:42.840Z,36.42
2023-06-20T01:54:42.802Z,36.47
2023-06-20T01:55:42.784Z,36.51
2023-06-20T01:56:42.768Z,36.40
2023-06-20T01:57:42.746Z,36.45
2023-06-20T01:58:42.764Z,36.50
2023-06-20T01:59:42.765Z,36.45
2023-06-20T02:00:42.681Z,36.45
2023-06-20T02:01:42.655Z,36.43
2023-06-20T02:02:42.719Z,36.40
2023-06-20T02:03:42.741Z,36.40
2023-06-20T02:04:42.681Z,36.42
2023-06-20T02:05:42.684Z,36.40
2023-06-20T02:06:42.685Z,36.38
2023-06-20T02:07:42.683Z,36.43
2023-06-20T02:08:42.698Z,36.36
2023-06-20T02:09:42.688Z,36.32
2023-06-20T02:10:42.706Z,36.38
2023-06-20T02:11:42.696Z,36.33
2023-06-20T02:12:42.718Z,36.38
2023-06-20T02:13:42.704Z,36.40
2023-06-20T02:14:42.733Z,36.45
2023-06-20T02:15:42.734Z,36.38
2023-06-20T02:16:42.750Z,36.35
2023-06-20T02:17:42.779Z,36.36
2023-06-20T02:18:42.731Z,36.36
2023-06-20T02:19:42.758Z,36.33
2023-06-20T02:20:42.770Z,36.35
2023-06-20T02:21:42.752Z,36.32
2023-06-20T02:22:42.772Z,36.42
2023-06-20T02:23:42.775Z,36.37
2023-06-20T02:24:42.861Z,36.35
2023-06-20T02:25:42.793Z,36.31
2023-06-20T02:26:42.791Z,36.37
2023-06-20T02:27:42.805Z,36.32
2023-06-20T02:28:42.844Z,36.30
2023-06-20T02:29:42.827Z,36.32
2023-06-20T02:30:42.825Z,36.30
2023-06-20T02:31:42.900Z,36.36
2023-06-20T02:32:42.865Z,36.30
2023-06-20T02:33:42.835Z,36.27
2023-06-20T02:34:42.847Z,36.28
2023-06-20T02:35:42.849Z,36.32
2023-06-20T02:36:42.871Z,36.32
2023-06-20T02:37:42.871Z,36.25
2023-06-20T02:38:42.891Z,36.26
2023-06-20T02:39:42.883Z,36.27
2023-06-20T02:40:42.910Z,36.30
2023-06-20T02:41:42.936Z,36.32
2023-06-20T02:42:45.957Z,36.28
2023-06-20T02:43:42.943Z,36.27
2023-06-20T02:44:42.898Z,36.28
2023-06-20T02:45:42.867Z,36.30
2023-06-20T02:46:42.812Z,36.30
2023-06-20T02:47:42.813Z,36.26
2023-06-20T02:48:42.785Z,36.22
2023-06-20T02:49:42.760Z,36.24
2023-06-20T02:50:42.784Z,36.21
2023-06-20T02:51:42.715Z,36.25
2023-06-20T02:52:42.692Z,36.22
2023-06-20T02:53:42.671Z,36.20
2023-06-20T02:54:42.656Z,36.22
2023-06-20T02:55:42.643Z,36.21
2023-06-20T02:56:42.619Z,36.20
2023-06-20T02:57:42.610Z,36.23
2023-06-20T02:58:42.577Z,36.23
2023-06-20T02:59:42.564Z,36.19
2023-06-20T03:00:42.534Z,36.23
2023-06-20T03:01:42.569Z,36.25
2023-06-20T03:02:42.604Z,36.26
2023-06-20T03:03:42.568Z,36.20
2023-06-20T03:04:42.477Z,36.19
2023-06-20T03:05:42.448Z,36.17
2023-06-20T03:06:42.429Z,36.20
2023-06-20T03:07:42.406Z,36.15
2023-06-20T03:08:42.411Z,36.18
2023-06-20T03:09:42.375Z,36.17
2023-06-20T03:10:42.380Z,36.16
2023-06-20T03:11:42.350Z,36.20
2023-06-20T03:12:42.354Z,36.13
2023-06-20T03:13:42.329Z,36.18
2023-06-20T03:14:42.318Z,36.18
2023-06-20T03:15:42.323Z,36.19
2023-06-20T03:16:42.337Z,36.20
2023-06-20T03:17:42.268Z,36.09
2023-06-20T03:18:42.225Z,36.12
2023-06-20T03:19:42.200Z,36.13
2023-06-20T03:20:42.194Z,36.14
2023-06-20T03:21:42.157Z,36.13
2023-06-20T03:22:42.131Z,36.12
2023-06-20T03:23:42.118Z,36.09
2023-06-20T03:24:42.236Z,36.15
2023-06-20T03:25:42.080Z,36.12
2023-06-20T03:26:42.089Z,36.11
2023-06-20T03:27:42.054Z,36.09
2023-06-20T03:28:42.012Z,36.08
2023-06-20T03:29:41.998Z,36.07
2023-06-20T03:30:41.967Z,36.07
2023-06-20T03:31:41.971Z,36.09
2023-06-20T03:32:41.981Z,36.08
2023-06-20T03:33:41.924Z,36.08
2023-06-20T03:34:41.896Z,36.07
2023-06-20T03:35:41.866Z,36.13
2023-06-20T03:36:41.855Z,36.09
2023-06-20T03:37:41.836Z,36.08
2023-06-20T03:38:41.872Z,36.07
2023-06-20T03:39:41.909Z,36.05
2023-06-20T03:40:41.882Z,36.08
2023-06-20T03:41:41.874Z,36.15
2023-06-20T03:42:41.915Z,36.08
2023-06-20T03:43:41.896Z,36.02
2023-06-20T03:44:41.916Z,36.05
2023-06-20T03:45:41.909Z,36.04
2023-06-20T03:46:41.977Z,36.05
2023-06-20T03:47:41.942Z,36.07
2023-06-20T03:48:41.939Z,36.02
2023-06-20T03:49:44.680Z,36.00
2023-06-20T03:50:41.936Z,36.04
2023-06-20T03:51:41.891Z,36.07
2023-06-20T03:52:41.909Z,36.11
2023-06-20T03:53:41.857Z,36.07
2023-06-20T03:54:41.882Z,36.04
2023-06-20T03:55:41.905Z,35.97
2023-06-20T03:56:41.815Z,35.95
2023-06-20T03:57:41.876Z,35.98
2023-06-20T03:58:41.887Z,35.96
2023-06-20T03:59:41.822Z,35.96
2023-06-20T04:00:41.736Z,36.01
2023-06-20T04:01:41.704Z,35.98
2023-06-20T04:02:41.710Z,35.95
2023-06-20T04:03:41.662Z,35.95
2023-06-20T04:04:41.648Z,35.92
2023-06-20T04:05:41.629Z,35.89
2023-06-20T04:06:41.665Z,35.90
2023-06-20T04:07:41.577Z,35.87
2023-06-20T04:08:41.599Z,35.87
2023-06-20T04:09:41.989Z,35.77
2023-06-20T04:10:41.635Z,35.76
2023-06-20T04:11:41.522Z,35.84
2023-06-20T04:12:41.593Z,35.80
2023-06-20T04:13:41.488Z,35.81
2023-06-20T04:14:41.524Z,35.81
2023-06-20T04:15:41.474Z,35.73
2023-06-20T04:16:41.402Z,35.83
2023-06-20T04:17:41.386Z,35.70
2023-06-20T04:18:41.360Z,35.75
2023-06-20T04:19:41.320Z,35.65
2023-06-20T04:20:41.299Z,35.69
2023-06-20T04:21:41.280Z,35.71
2023-06-20T04:22:41.263Z,35.65
2023-06-20T04:23:41.230Z,35.66
2023-06-20T04:24:41.287Z,35.69
2023-06-20T04:25:41.200Z,35.69
2023-06-20T04:26:41.178Z,35.70
2023-06-20T04:27:41.168Z,35.69
2023-06-20T04:28:41.201Z,35.66
2023-06-20T04:29:41.138Z,35.66
2023-06-20T04:30:41.089Z,35.68
2023-06-20T04:31:41.070Z,35.65
2023-06-20T04:32:41.090Z,35.69
2023-06-20T04:33:41.020Z,35.64
2023-06-20T04:34:40.985Z,35.63
2023-06-20T04:35:40.972Z,35.61
2023-06-20T04:36:40.924Z,35.62
2023-06-20T04:37:40.913Z,35.58
2023-06-20T04:38:40.894Z,35.62
2023-06-20T04:39:40.874Z,35.64
2023-06-20T04:40:40.847Z,35.68
2023-06-20T04:41:40.841Z,35.65
2023-06-20T04:42:40.813Z,35.70
2023-06-20T04:43:40.815Z,35.65
2023-06-20T04:44:40.790Z,35.66
2023-06-20T04:45:40.782Z,35.68
2023-06-20T04:46:40.746Z,35.68
2023-06-20T04:47:40.824Z,35.70
2023-06-20T04:48:40.818Z,35.64
2023-06-20T04:49:40.694Z,35.66
2023-06-20T04:50:40.668Z,35.69
2023-06-20T04:51:40.652Z,35.66
2023-06-20T04:52:40.621Z,35.59
2023-06-20T04:53:40.603Z,35.64
2023-06-20T04:54:40.600Z,35.61
2023-06-20T04:55:40.554Z,35.66
2023-06-20T04:56:40.538Z,35.66
2023-06-20T04:57:40.524Z,35.60
2023-06-20T04:58:40.498Z,35.65
2023-06-20T04:59:40.474Z,35.77
2023-06-20T05:00:40.442Z,35.70
2023-06-20T05:01:40.487Z,35.59
2023-06-20T05:02:40.460Z,35.65
2023-06-20T05:03:40.437Z,35.73
2023-06-20T05:04:40.373Z,35.74
2023-06-20T05:05:40.339Z,35.63
2023-06-20T05:06:40.348Z,35.69
2023-06-20T05:07:40.309Z,35.71
2023-06-20T05:08:40.281Z,35.74
2023-06-20T05:09:40.272Z,35.71
2023-06-20T05:10:40.242Z,35.73
2023-06-20T05:11:40.221Z,35.70
2023-06-20T05:12:40.204Z,35.70
2023-06-20T05:13:40.197Z,35.68
2023-06-20T05:14:40.174Z,35.74
2023-06-20T05:15:40.151Z,35.75
2023-06-20T05:16:40.156Z,35.70
2023-06-20T05:17:40.143Z,35.67
2023-06-20T05:18:40.221Z,35.69
2023-06-20T05:19:40.088Z,35.66
2023-06-20T05:20:40.058Z,35.69
2023-06-20T05:21:40.024Z,35.62
2023-06-20T05:22:40.014Z,35.65
2023-06-20T05:23:40.027Z,35.62
2023-06-20T05:24:40.107Z,35.63
2023-06-20T05:25:39.982Z,35.66
2023-06-20T05:26:39.987Z,35.69
2023-06-20T05:27:39.943Z,35.69
2023-06-20T05:28:39.947Z,35.62
2023-06-20T05:29:39.910Z,35.68
2023-06-20T05:30:39.874Z,35.82
2023-06-20T05:31:39.938Z,35.72
2023-06-20T05:32:39.984Z,35.95
2023-06-20T05:33:39.893Z,36.43
2023-06-20T05:34:39.839Z,36.85
2023-06-20T05:35:39.809Z,36.71
2023-06-20T05:36:39.806Z,36.74
2023-06-20T05:37:39.779Z,36.98
2023-06-20T05:38:39.790Z,37.30
2023-06-20T05:39:39.752Z,37.16
2023-06-20T05:40:39.748Z,37.31
2023-06-20T05:41:39.701Z,37.29
2023-06-20T05:42:39.689Z,37.21
2023-06-20T05:43:39.641Z,37.33
2023-06-20T05:44:39.622Z,37.57
2023-06-20T05:45:40.822Z,38.05
2023-06-20T05:46:39.671Z,38.80
2023-06-20T05:47:39.636Z,38.91
2023-06-20T05:48:39.571Z,39.19
2023-06-20T05:49:39.507Z,38.82
2023-06-20T05:50:39.463Z,38.64
2023-06-20T05:51:39.433Z,38.49
2023-06-20T05:52:39.441Z,38.35
2023-06-20T05:53:39.406Z,38.30
2023-06-20T05:54:40.020Z,38.13
2023-06-20T05:55:39.347Z,38.06
2023-06-20T05:56:39.345Z,37.97
2023-06-20T05:57:39.311Z,37.95
2023-06-20T05:58:39.373Z,37.87
2023-06-20T05:59:39.275Z,37.66
2023-06-20T06:00:39.206Z,37.56
2023-06-20T06:01:39.248Z,37.54
2023-06-20T06:02:39.209Z,37.50
2023-06-20T06:03:39.384Z,37.50
2023-06-20T06:04:39.381Z,37.48
2023-06-20T06:05:39.126Z,37.36
2023-06-20T06:06:39.101Z,37.28
2023-06-20T06:07:39.052Z,37.33
2023-06-20T06:08:39.027Z,37.33
2023-06-20T06:09:38.983Z,37.28
2023-06-20T06:10:38.958Z,37.33
2023-06-20T06:11:38.925Z,37.28
2023-06-20T06:12:38.894Z,37.25
2023-06-20T06:13:38.874Z,37.25
2023-06-20T06:14:38.916Z,37.21
2023-06-20T06:15:40.402Z,37.23
2023-06-20T06:16:39.858Z,37.35
2023-06-20T06:17:38.833Z,37.37
2023-06-20T06:18:38.883Z,37.33
2023-06-20T06:19:38.777Z,37.25
2023-06-20T06:20:38.702Z,37.33
2023-06-20T06:21:38.758Z,37.30
2023-06-20T06:22:38.657Z,37.29
2023-06-20T06:23:38.633Z,37.34
2023-06-20T06:25:57.489Z,37.37
2023-06-20T06:26:57.464Z,37.37
2023-06-20T06:27:57.483Z,37.36
2023-06-20T06:28:57.428Z,37.30
2023-06-20T06:29:57.435Z,37.37
2023-06-20T06:30:57.432Z,37.35
2023-06-20T06:31:57.431Z,37.23
2023-06-20T06:32:57.503Z,37.21
2023-06-20T06:33:57.365Z,37.21
2023-06-20T06:34:57.376Z,37.17
2023-06-20T06:35:57.382Z,37.12
2023-06-20T06:36:57.446Z,37.06
2023-06-20T06:37:57.417Z,36.97
2023-06-20T06:38:57.391Z,36.92
2023-06-20T06:39:57.670Z,36.86
2023-06-20T06:40:57.344Z,36.79
2023-06-20T06:41:57.355Z,36.78
2023-06-20T06:42:57.317Z,36.78
2023-06-20T06:43:57.303Z,36.78
2023-06-20T06:44:57.399Z,36.85
2023-06-20T06:45:57.284Z,36.81
2023-06-20T06:46:57.265Z,36.75
2023-06-20T06:47:57.377Z,36.75
2023-06-20T06:48:57.295Z,36.79
2023-06-20T06:49:57.329Z,36.78
2023-06-20T06:50:57.359Z,36.76
2023-06-20T06:51:57.518Z,36.72
2023-06-20T06:52:57.436Z,36.71
2023-06-20T06:53:57.513Z,36.70
2023-06-20T06:54:57.544Z,36.70
2023-06-20T06:55:57.520Z,36.65
2023-06-20T06:56:57.536Z,36.60
2023-06-20T06:57:57.515Z,36.55
2023-06-20T06:58:57.488Z,36.56
2023-06-20T06:59:57.467Z,36.52
2023-06-20T07:00:57.450Z,36.57
2023-06-20T07:01:57.502Z,36.62
2023-06-20T07:02:57.466Z,37.06
2023-06-20T07:03:57.729Z,37.69
2023-06-20T07:04:57.369Z,37.66
2023-06-20T07:05:57.352Z,37.69
2023-06-20T07:06:57.360Z,37.78
2023-06-20T07:07:57.305Z,37.92
2023-06-20T07:08:57.288Z,38.21
2023-06-20T07:09:57.244Z,38.40
2023-06-20T07:10:57.290Z,38.63
2023-06-20T07:11:57.280Z,38.83
2023-06-20T07:12:57.312Z,38.97
2023-06-20T07:13:57.329Z,39.07
2023-06-20T07:14:57.353Z,39.14
2023-06-20T07:15:57.444Z,39.24
2023-06-20T07:17:05.184Z,39.39
2023-06-20T07:17:58.401Z,39.56
2023-06-20T07:18:57.319Z,39.72
2023-06-20T07:19:57.298Z,39.86
2023-06-20T07:20:57.249Z,39.97
2023-06-20T07:21:57.225Z,39.95
2023-06-20T07:22:57.190Z,39.98
2023-06-20T07:23:57.314Z,40.08
2023-06-20T07:24:57.793Z,40.12
2023-06-20T07:25:57.135Z,40.27
2023-06-20T07:26:57.130Z,40.30
2023-06-20T07:27:57.101Z,40.40
2023-06-20T07:28:57.063Z,40.27
2023-06-20T07:29:57.156Z,40.40
2023-06-20T07:30:57.051Z,40.52
2023-06-20T07:31:57.026Z,40.54
2023-06-20T07:32:56.997Z,40.64
2023-06-20T07:33:56.857Z,40.62
2023-06-20T07:34:56.864Z,40.72
2023-06-20T07:35:56.809Z,40.83
2023-06-20T07:36:56.797Z,40.80
2023-06-20T07:37:56.763Z,40.85
2023-06-20T07:38:56.738Z,41.03
2023-06-20T07:39:56.713Z,42.33
2023-06-20T07:40:56.668Z,41.44
2023-06-20T07:41:56.650Z,41.10
2023-06-20T07:42:56.655Z,40.86
2023-06-20T07:43:56.613Z,40.70
2023-06-20T07:44:56.576Z,40.68
2023-06-20T07:45:56.594Z,40.96
2023-06-20T07:46:56.507Z,40.55
2023-06-20T07:47:56.486Z,40.38
2023-06-20T07:48:56.435Z,40.27
2023-06-20T07:49:56.556Z,40.18
2023-06-20T07:50:56.417Z,40.19
2023-06-20T07:51:56.413Z,40.18
2023-06-20T07:52:56.305Z,40.12
2023-06-20T07:53:57.205Z,40.26
2023-06-20T07:54:56.247Z,40.25
2023-06-20T07:55:56.338Z,40.12
2023-06-20T07:56:56.175Z,40.11
2023-06-20T07:57:56.217Z,40.03
2023-06-20T07:58:56.110Z,40.06
2023-06-20T07:59:56.027Z,39.97
2023-06-20T08:00:56.080Z,39.81
2023-06-20T08:01:55.996Z,39.76
2023-06-20T08:02:56.111Z,39.55
2023-06-20T08:03:56.020Z,38.61
2023-06-20T08:04:55.898Z,38.66
2023-06-20T08:05:56.089Z,38.11
2023-06-20T08:06:55.830Z,38.44
2023-06-20T08:07:55.797Z,38.69
2023-06-20T08:08:55.771Z,38.93
2023-06-20T08:09:55.735Z,39.05
2023-06-20T08:10:55.704Z,39.06
2023-06-20T08:11:55.675Z,39.11
2023-06-20T08:12:55.644Z,39.08
2023-06-20T08:13:55.609Z,39.05
2023-06-20T08:14:55.658Z,38.98
2023-06-20T08:15:55.529Z,38.94
2023-06-20T08:16:55.572Z,38.85
2023-06-20T08:17:55.525Z,38.87
2023-06-20T08:18:55.424Z,38.80
2023-06-20T08:19:55.579Z,38.72
2023-06-20T08:20:55.342Z,38.66
2023-06-20T08:21:55.310Z,38.62
2023-06-20T08:22:55.606Z,38.62
2023-06-20T08:23:55.305Z,38.50
2023-06-20T08:24:55.228Z,38.37
2023-06-20T08:25:55.182Z,38.25
2023-06-20T08:26:55.134Z,38.34
2023-06-20T08:28:06.371Z,38.38
2023-06-20T08:28:56.111Z,38.32
2023-06-20T08:29:55.024Z,38.29
2023-06-20T08:30:55.036Z,38.26
2023-06-20T08:31:54.946Z,38.26
2023-06-20T08:32:54.902Z,38.29
2023-06-20T08:33:54.849Z,38.22
2023-06-20T08:34:57.031Z,38.11
2023-06-20T08:35:54.983Z,38.05
2023-06-20T08:36:55.000Z,37.36
2023-06-20T08:37:55.046Z,37.54
2023-06-20T08:38:55.018Z,37.41
2023-06-20T08:39:54.986Z,37.37
2023-06-20T08:40:55.063Z,36.94
2023-06-20T08:41:54.922Z,37.16
2023-06-20T08:42:54.899Z,37.13
2023-06-20T08:43:54.871Z,37.08
2023-06-20T08:44:57.773Z,36.49
2023-06-20T08:45:54.930Z,36.56
2023-06-20T08:46:54.796Z,36.52
2023-06-20T08:47:54.732Z,36.54
2023-06-20T08:48:54.666Z,36.87
2023-06-20T08:49:54.637Z,37.13
2023-06-20T08:50:54.607Z,37.27
2023-06-20T08:51:54.567Z,37.16
2023-06-20T08:52:54.560Z,37.00
2023-06-20T08:53:54.859Z,36.87
2023-06-20T08:54:54.539Z,36.83
2023-06-20T08:55:54.454Z,36.73
2023-06-20T08:56:54.375Z,36.67
2023-06-20T08:57:54.356Z,36.70
2023-06-20T08:58:54.330Z,36.58
2023-06-20T08:59:54.410Z,36.47
2023-06-20T09:00:54.259Z,36.40
2023-06-20T09:01:54.209Z,36.32
2023-06-20T09:02:54.312Z,36.25
2023-06-20T09:03:54.120Z,36.18
2023-06-20T09:04:54.112Z,36.15
2023-06-20T09:05:54.038Z,36.13
2023-06-20T09:06:54.010Z,36.19
2023-06-20T09:07:53.974Z,36.11
2023-06-20T09:08:53.923Z,36.09
2023-06-20T09:09:53.886Z,36.04
2023-06-20T09:10:53.841Z,35.95
2023-06-20T09:11:53.808Z,35.84
2023-06-20T09:12:53.790Z,35.85
2023-06-20T09:13:53.746Z,35.74
2023-06-20T09:14:53.757Z,35.78
2023-06-20T09:15:53.679Z,35.66
2023-06-20T09:16:53.660Z,35.60
2023-06-20T09:17:53.622Z,35.57
2023-06-20T09:18:53.555Z,35.55
2023-06-20T09:19:54.899Z,35.49
2023-06-20T09:20:53.487Z,35.42
2023-06-20T09:22:04.307Z,35.46
2023-06-20T09:22:54.414Z,35.32
2023-06-20T09:23:53.369Z,35.30
2023-06-20T09:24:53.354Z,35.30
2023-06-20T09:25:53.336Z,35.21
2023-06-20T09:26:53.273Z,35.17
2023-06-20T09:27:53.231Z,35.16
2023-06-20T09:28:53.199Z,35.16
2023-06-20T09:29:53.241Z,35.17
2023-06-20T09:30:53.151Z,35.15
2023-06-20T09:31:53.067Z,35.10
2023-06-20T09:32:53.102Z,35.15
2023-06-20T09:33:52.996Z,35.16
2023-06-20T09:34:52.970Z,35.09
2023-06-20T09:35:52.938Z,35.12
2023-06-20T09:36:52.965Z,35.16
2023-06-20T09:37:52.858Z,35.16
2023-06-20T09:38:52.805Z,35.08
2023-06-20T09:39:52.810Z,35.06
2023-06-20T09:40:52.736Z,35.04
2023-06-20T09:41:52.728Z,35.03
2023-06-20T09:42:52.764Z,35.43
2023-06-20T09:43:52.627Z,35.87
2023-06-20T09:44:52.601Z,36.07
2023-06-20T09:45:52.596Z,36.82
2023-06-20T09:46:52.587Z,37.30
2023-06-20T09:47:52.605Z,37.06
2023-06-20T09:48:52.480Z,37.01
2023-06-20T09:49:52.435Z,36.91
2023-06-20T09:50:52.401Z,36.80
2023-06-20T09:51:52.369Z,36.72
2023-06-20T09:52:52.385Z,36.49
2023-06-20T09:53:52.309Z,36.40
2023-06-20T09:54:52.273Z,36.26
2023-06-20T09:55:52.242Z,36.11
2023-06-20T09:56:52.207Z,36.02
2023-06-20T09:57:52.179Z,36.06
2023-06-20T09:58:52.146Z,36.09
2023-06-20T09:59:52.096Z,36.63
2023-06-20T10:00:52.077Z,36.29
2023-06-20T10:01:52.462Z,36.15
2023-06-20T10:02:52.263Z,36.13
2023-06-20T10:03:52.038Z,36.16
2023-06-20T10:04:52.082Z,36.11
2023-06-20T10:05:51.894Z,36.10
2023-06-20T10:06:51.851Z,36.48
2023-06-20T10:07:51.817Z,36.43
2023-06-20T10:08:51.796Z,36.36
2023-06-20T10:09:51.766Z,36.32
2023-06-20T10:10:51.758Z,36.30
2023-06-20T10:11:51.685Z,36.30
2023-06-20T10:12:51.689Z,36.30
2023-06-20T10:13:51.638Z,36.26
2023-06-20T10:14:51.633Z,36.31
2023-06-20T10:15:51.556Z,36.30
2023-06-20T10:16:51.524Z,36.31
2023-06-20T10:17:51.654Z,36.20
2023-06-20T10:18:51.495Z,36.54
2023-06-20T10:19:51.565Z,36.44
2023-06-20T10:20:51.389Z,36.33
2023-06-20T10:21:51.383Z,36.27
2023-06-20T10:22:51.326Z,36.23
2023-06-20T10:23:51.380Z,36.22
2023-06-20T10:24:51.377Z,36.25
2023-06-20T10:25:51.234Z,36.16
2023-06-20T10:26:51.244Z,36.16
2023-06-20T10:27:51.160Z,36.11
2023-06-20T10:28:51.347Z,36.05
2023-06-20T10:29:51.110Z,36.04
2023-06-20T10:30:51.108Z,35.96
2023-06-20T10:31:51.177Z,35.95
2023-06-20T10:32:51.139Z,35.94
2023-06-20T10:33:51.039Z,35.91
2023-06-20T10:34:51.046Z,35.88
2023-06-20T10:35:51.762Z,35.82
2023-06-20T10:36:51.014Z,35.81
2023-06-20T10:37:51.020Z,35.77
2023-06-20T10:38:50.944Z,35.75
2023-06-20T10:39:50.970Z,35.76
2023-06-20T10:40:50.925Z,35.72
2023-06-20T10:41:50.922Z,35.69
2023-06-20T10:42:50.880Z,35.72
2023-06-20T10:43:50.885Z,35.69
2023-06-20T10:44:50.856Z,35.67
2023-06-20T10:45:50.899Z,35.66
2023-06-20T10:46:50.820Z,35.63
2023-06-20T10:47:50.883Z,35.60
2023-06-20T10:48:50.792Z,35.57
2023-06-20T10:49:51.250Z,35.50
2023-06-20T10:50:50.781Z,35.51
2023-06-20T10:51:50.802Z,35.48
2023-06-20T10:52:50.728Z,35.46
2023-06-20T10:53:50.699Z,35.50
2023-06-20T10:54:50.679Z,35.48
2023-06-20T10:55:50.716Z,35.45
2023-06-20T10:56:50.594Z,35.45
2023-06-20T10:57:50.574Z,35.45
2023-06-20T10:58:50.531Z,35.44
2023-06-20T10:59:50.776Z,35.38
2023-06-20T11:00:50.472Z,35.41
2023-06-20T11:01:50.446Z,35.37
2023-06-20T11:02:50.574Z,35.38
2023-06-20T11:03:50.406Z,35.33
2023-06-20T11:04:50.339Z,35.38
2023-06-20T11:05:50.308Z,35.37
2023-06-20T11:06:50.295Z,35.32
2023-06-20T11:07:52.142Z,35.30
2023-06-20T11:08:50.245Z,35.19
2023-06-20T11:09:50.192Z,35.19
2023-06-20T11:10:50.153Z,35.19
2023-06-20T11:11:50.152Z,35.14
2023-06-20T11:12:50.102Z,35.10
2023-06-20T11:13:50.099Z,35.08
2023-06-20T11:14:50.022Z,35.04
2023-06-20T11:15:50.029Z,35.08
2023-06-20T11:16:50.014Z,34.99
2023-06-20T11:17:50.849Z,34.99
2023-06-20T11:18:50.113Z,34.97
2023-06-20T11:19:49.863Z,34.92
2023-06-20T11:20:49.801Z,34.90
2023-06-20T11:21:49.755Z,34.85
2023-06-20T11:22:49.728Z,34.82
2023-06-20T11:23:49.653Z,34.81
2023-06-20T11:24:49.925Z,34.84
2023-06-20T11:25:49.588Z,34.77
2023-06-20T11:26:49.656Z,34.74
2023-06-20T11:27:49.690Z,34.73
2023-06-20T11:28:52.567Z,34.74
2023-06-20T11:29:50.829Z,34.73
2023-06-20T11:30:49.455Z,34.64
2023-06-20T11:31:49.367Z,34.68
2023-06-20T11:32:49.430Z,34.68
2023-06-20T11:33:49.305Z,34.65
2023-06-20T11:34:49.268Z,34.65
2023-06-20T11:35:49.213Z,34.63
2023-06-20T11:36:49.162Z,34.60
2023-06-20T11:37:49.129Z,34.62
2023-06-20T11:38:49.110Z,34.60
2023-06-20T11:39:49.084Z,34.55
2023-06-20T11:40:49.036Z,34.57
2023-06-20T11:41:49.001Z,34.54
2023-06-20T11:42:48.972Z,34.54
2023-06-20T11:43:48.901Z,34.55
2023-06-20T11:44:48.864Z,34.53
2023-06-20T11:45:48.840Z,34.54
2023-06-20T11:46:48.945Z,34.45
2023-06-20T11:47:48.811Z,34.45
2023-06-20T11:48:48.710Z,34.48
2023-06-20T11:49:48.729Z,34.48
2023-06-20T11:50:48.638Z,34.43
2023-06-20T11:51:48.599Z,34.44
2023-06-20T11:52:48.559Z,34.42
2023-06-20T11:53:48.497Z,34.42
2023-06-20T11:54:48.473Z,34.43
2023-06-20T11:55:48.436Z,34.40
2023-06-20T11:56:48.371Z,34.40
2023-06-20T11:57:48.347Z,34.40
2023-06-20T11:58:48.299Z,34.43
2023-06-20T11:59:48.274Z,34.38
2023-06-20T12:00:48.229Z,34.38
2023-06-20T12:01:48.235Z,34.39
2023-06-20T12:02:48.157Z,34.37
2023-06-20T12:03:48.133Z,34.39
2023-06-20T12:04:48.078Z,34.35
2023-06-20T12:05:48.062Z,34.40
2023-06-20T12:06:48.009Z,34.38
2023-06-20T12:07:47.966Z,34.37
2023-06-20T12:08:47.920Z,34.36
2023-06-20T12:09:47.873Z,34.39
2023-06-20T12:10:47.882Z,34.36
2023-06-20T12:11:47.805Z,34.36
2023-06-20T12:12:47.824Z,34.32
2023-06-20T12:13:47.746Z,34.38
2023-06-20T12:14:47.726Z,34.33
2023-06-20T12:15:47.666Z,34.33
2023-06-20T12:16:47.661Z,34.36
2023-06-20T12:17:47.694Z,34.34
2023-06-20T12:18:47.560Z,34.34
2023-06-20T12:19:47.519Z,34.35
2023-06-20T12:20:59.054Z,34.39
2023-06-20T12:21:48.504Z,34.40
2023-06-20T12:22:47.424Z,34.35
2023-06-20T12:23:47.378Z,34.36
2023-06-20T12:24:47.437Z,34.38
2023-06-20T12:25:47.320Z,34.35
2023-06-20T12:26:47.280Z,34.39
2023-06-20T12:27:47.243Z,34.40
2023-06-20T12:28:47.187Z,34.41
2023-06-20T12:29:47.137Z,34.42
2023-06-20T12:30:47.096Z,34.36
2023-06-20T12:31:47.093Z,34.41
2023-06-20T12:32:47.091Z,34.36
2023-06-20T12:33:46.994Z,34.41
2023-06-20T12:34:46.957Z,34.37
2023-06-20T12:35:46.923Z,34.35
2023-06-20T12:36:46.866Z,34.37
2023-06-20T12:37:46.882Z,34.35
2023-06-20T12:38:46.796Z,34.36
2023-06-20T12:39:46.766Z,34.30
2023-06-20T12:40:46.733Z,34.29
2023-06-20T12:41:46.699Z,34.35
2023-06-20T12:42:46.642Z,34.32
2023-06-20T12:43:46.603Z,34.29
2023-06-20T12:44:46.566Z,34.28
2023-06-20T12:45:46.556Z,34.31
2023-06-20T12:46:46.505Z,34.31
2023-06-20T12:47:46.486Z,34.34
2023-06-20T12:48:46.411Z,34.29
2023-06-20T12:49:46.386Z,34.31
2023-06-20T12:50:46.340Z,34.26
2023-06-20T12:51:46.280Z,34.32
2023-06-20T12:52:46.248Z,34.31
2023-06-20T12:53:46.249Z,34.30